LGV327 SEGU-SPJC
Flight info
| Callsign | LGV327 |
|---|---|
| Flight time | 1h 23m |
| Altitude | 39000 |
| Route | EVRE2A EVRED UL780 TRU UV1 ATATU ATATU4 |
| Aircraft | C750/M-SBDE3FGHRWXY/S |
Departure
| Time | 2026-05-08 02:14 |
|---|---|
| Airport | José Joaquín de Olmedo International Airport (SEGU) |
Arrival
| Time | 2026-05-08 03:38 |
|---|---|
| Airport | Jorge Chávez International Airport (SPJC) |
| Time | Latitude | Longitude | Altitude | Speed | Heading |
|---|---|---|---|---|---|
| 2026-05-08 01:47 | -2.16533 | -79.89082 | 26 ft | 0 kts | 30° |
| 2026-05-08 02:00 | -2.16544 | -79.89089 | 26 ft | 4 kts | 44° |
| 2026-05-08 02:01 | -2.16551 | -79.89106 | 27 ft | 3 kts | 118° |
| 2026-05-08 02:01 | -2.16550 | -79.89109 | 28 ft | 0 kts | 120° |
| 2026-05-08 02:04 | -2.16550 | -79.89108 | 27 ft | 1 kts | 120° |
| 2026-05-08 02:04 | -2.16555 | -79.89100 | 27 ft | 2 kts | 120° |
| 2026-05-08 02:04 | -2.16564 | -79.89085 | 26 ft | 3 kts | 121° |
| 2026-05-08 02:04 | -2.16576 | -79.89063 | 25 ft | 4 kts | 115° |
| 2026-05-08 02:05 | -2.16574 | -79.89031 | 27 ft | 6 kts | 77° |
| 2026-05-08 02:05 | -2.16591 | -79.88992 | 25 ft | 7 kts | 123° |
| 2026-05-08 02:05 | -2.16579 | -79.88957 | 25 ft | 7 kts | 36° |
| 2026-05-08 02:05 | -2.16533 | -79.88931 | 27 ft | 9 kts | 31° |
| 2026-05-08 02:06 | -2.16476 | -79.88898 | 25 ft | 11 kts | 29° |
| 2026-05-08 02:06 | -2.16406 | -79.88858 | 26 ft | 13 kts | 31° |
| 2026-05-08 02:06 | -2.16323 | -79.88809 | 25 ft | 15 kts | 30° |
| 2026-05-08 02:06 | -2.16226 | -79.88754 | 27 ft | 17 kts | 30° |
| 2026-05-08 02:07 | -2.16118 | -79.88692 | 25 ft | 19 kts | 30° |
| 2026-05-08 02:07 | -2.15998 | -79.88623 | 25 ft | 21 kts | 30° |
| 2026-05-08 02:07 | -2.15866 | -79.88546 | 27 ft | 23 kts | 30° |
| 2026-05-08 02:07 | -2.15722 | -79.88463 | 24 ft | 24 kts | 29° |
| 2026-05-08 02:08 | -2.15579 | -79.88381 | 24 ft | 23 kts | 31° |
| 2026-05-08 02:08 | -2.15448 | -79.88305 | 24 ft | 21 kts | 29° |
| 2026-05-08 02:08 | -2.15333 | -79.88239 | 24 ft | 15 kts | 30° |
| 2026-05-08 02:08 | -2.15269 | -79.88221 | 25 ft | 7 kts | 326° |
| 2026-05-08 02:09 | -2.15239 | -79.88250 | 25 ft | 5 kts | 337° |
| 2026-05-08 02:09 | -2.15205 | -79.88246 | 28 ft | 5 kts | 26° |
| 2026-05-08 02:09 | -2.15173 | -79.88228 | 27 ft | 6 kts | 29° |
| 2026-05-08 02:09 | -2.15136 | -79.88207 | 26 ft | 6 kts | 29° |
| 2026-05-08 02:10 | -2.15095 | -79.88183 | 25 ft | 7 kts | 30° |
| 2026-05-08 02:10 | -2.15049 | -79.88157 | 26 ft | 8 kts | 30° |
| 2026-05-08 02:10 | -2.14999 | -79.88128 | 27 ft | 9 kts | 30° |
| 2026-05-08 02:10 | -2.14944 | -79.88096 | 27 ft | 9 kts | 30° |
| 2026-05-08 02:11 | -2.14885 | -79.88061 | 27 ft | 10 kts | 30° |
| 2026-05-08 02:11 | -2.14822 | -79.88024 | 25 ft | 11 kts | 30° |
| 2026-05-08 02:11 | -2.14754 | -79.87986 | 27 ft | 12 kts | 29° |
| 2026-05-08 02:11 | -2.14682 | -79.87944 | 25 ft | 12 kts | 36° |
| 2026-05-08 02:12 | -2.14650 | -79.87881 | 25 ft | 3 kts | 70° |
| 2026-05-08 02:12 | -2.14649 | -79.87878 | 25 ft | 0 kts | 70° |
| 2026-05-08 02:13 | -2.14648 | -79.87874 | 25 ft | 3 kts | 70° |
| 2026-05-08 02:13 | -2.14638 | -79.87842 | 25 ft | 7 kts | 78° |
| 2026-05-08 02:13 | -2.14634 | -79.87786 | 25 ft | 10 kts | 106° |
| 2026-05-08 02:14 | -2.14689 | -79.87761 | 27 ft | 11 kts | 212° |
| 2026-05-08 02:14 | -2.14793 | -79.87821 | 24 ft | 34 kts | 210° |
| 2026-05-08 02:14 | -2.15352 | -79.88142 | 27 ft | 144 kts | 210° |
| 2026-05-08 02:14 | -2.16219 | -79.88635 | 779 ft | 141 kts | 212° |
| 2026-05-08 02:15 | -2.17093 | -79.89157 | 1544 ft | 156 kts | 212° |
| 2026-05-08 02:15 | -2.18143 | -79.89759 | 2197 ft | 187 kts | 208° |
| 2026-05-08 02:15 | -2.19419 | -79.89983 | 3229 ft | 192 kts | 175° |
| 2026-05-08 02:15 | -2.20715 | -79.89710 | 4356 ft | 196 kts | 168° |
| 2026-05-08 02:16 | -2.22142 | -79.89415 | 5035 ft | 221 kts | 169° |
| 2026-05-08 02:16 | -2.23740 | -79.89120 | 5647 ft | 246 kts | 169° |
| 2026-05-08 02:16 | -2.25507 | -79.88777 | 6166 ft | 272 kts | 169° |
| 2026-05-08 02:16 | -2.27408 | -79.88398 | 6971 ft | 280 kts | 168° |
| 2026-05-08 02:17 | -2.29290 | -79.88027 | 8184 ft | 273 kts | 168° |
| 2026-05-08 02:17 | -2.31224 | -79.87652 | 8989 ft | 291 kts | 168° |
| 2026-05-08 02:17 | -2.33212 | -79.87254 | 10038 ft | 294 kts | 167° |
| 2026-05-08 02:17 | -2.35263 | -79.86851 | 10624 ft | 310 kts | 167° |
| 2026-05-08 02:18 | -2.37474 | -79.86422 | 10827 ft | 338 kts | 168° |
| 2026-05-08 02:18 | -2.39874 | -79.85951 | 11051 ft | 361 kts | 168° |
| 2026-05-08 02:18 | -2.42337 | -79.85463 | 11946 ft | 360 kts | 168° |
| 2026-05-08 02:18 | -2.44819 | -79.84981 | 12638 ft | 367 kts | 168° |
| 2026-05-08 02:19 | -2.47334 | -79.84487 | 13396 ft | 370 kts | 167° |
| 2026-05-08 02:19 | -2.49874 | -79.83984 | 14115 ft | 374 kts | 167° |
| 2026-05-08 02:19 | -2.52442 | -79.83480 | 14796 ft | 378 kts | 167° |
| 2026-05-08 02:19 | -2.55036 | -79.82973 | 15474 ft | 382 kts | 167° |
| 2026-05-08 02:20 | -2.57656 | -79.82458 | 16155 ft | 386 kts | 167° |
| 2026-05-08 02:20 | -2.60300 | -79.81938 | 16872 ft | 389 kts | 167° |
| 2026-05-08 02:20 | -2.62975 | -79.81413 | 17585 ft | 394 kts | 167° |
| 2026-05-08 02:20 | -2.65683 | -79.80881 | 18327 ft | 398 kts | 168° |
| 2026-05-08 02:21 | -2.68410 | -79.80345 | 18998 ft | 402 kts | 167° |
| 2026-05-08 02:21 | -2.71174 | -79.79803 | 19683 ft | 407 kts | 167° |
| 2026-05-08 02:21 | -2.73969 | -79.79253 | 20375 ft | 411 kts | 167° |
| 2026-05-08 02:21 | -2.76789 | -79.78699 | 21075 ft | 416 kts | 167° |
| 2026-05-08 02:22 | -2.79644 | -79.78142 | 21771 ft | 420 kts | 167° |
| 2026-05-08 02:22 | -2.82562 | -79.77738 | 22413 ft | 426 kts | 171° |
| 2026-05-08 02:22 | -2.85526 | -79.77381 | 23143 ft | 430 kts | 171° |
| 2026-05-08 02:22 | -2.88512 | -79.77006 | 23765 ft | 435 kts | 171° |
| 2026-05-08 02:23 | -2.91529 | -79.76606 | 24384 ft | 438 kts | 171° |
| 2026-05-08 02:23 | -2.94563 | -79.76210 | 24988 ft | 442 kts | 171° |
| 2026-05-08 02:23 | -2.97616 | -79.75832 | 25605 ft | 444 kts | 172° |
| 2026-05-08 02:23 | -3.00694 | -79.75442 | 26227 ft | 447 kts | 172° |
| 2026-05-08 02:24 | -3.03785 | -79.75037 | 26812 ft | 450 kts | 172° |
| 2026-05-08 02:24 | -3.06899 | -79.74635 | 27426 ft | 453 kts | 173° |
| 2026-05-08 02:24 | -3.10033 | -79.74239 | 28043 ft | 456 kts | 173° |
| 2026-05-08 02:24 | -3.13198 | -79.73842 | 28662 ft | 460 kts | 173° |
| 2026-05-08 02:25 | -3.16380 | -79.73426 | 29269 ft | 463 kts | 173° |
| 2026-05-08 02:25 | -3.19582 | -79.73007 | 29868 ft | 466 kts | 174° |
| 2026-05-08 02:25 | -3.22815 | -79.72598 | 30391 ft | 469 kts | 174° |
| 2026-05-08 02:25 | -3.26060 | -79.72191 | 30830 ft | 472 kts | 174° |
| 2026-05-08 02:26 | -3.29329 | -79.71770 | 31373 ft | 473 kts | 174° |
| 2026-05-08 02:26 | -3.32579 | -79.71346 | 32105 ft | 470 kts | 174° |
| 2026-05-08 02:26 | -3.35816 | -79.70933 | 32781 ft | 468 kts | 175° |
| 2026-05-08 02:26 | -3.39041 | -79.70525 | 33461 ft | 467 kts | 175° |
| 2026-05-08 02:27 | -3.42257 | -79.70113 | 34109 ft | 465 kts | 175° |
| 2026-05-08 02:27 | -3.45462 | -79.69700 | 34668 ft | 464 kts | 175° |
| 2026-05-08 02:27 | -3.48665 | -79.69289 | 35196 ft | 465 kts | 175° |
| 2026-05-08 02:27 | -3.51873 | -79.68880 | 35708 ft | 465 kts | 175° |
| 2026-05-08 02:28 | -3.55083 | -79.68469 | 36253 ft | 465 kts | 175° |
| 2026-05-08 02:28 | -3.58294 | -79.68057 | 36755 ft | 466 kts | 175° |
| 2026-05-08 02:28 | -3.61514 | -79.67643 | 37309 ft | 465 kts | 175° |
| 2026-05-08 02:28 | -3.64726 | -79.67230 | 37795 ft | 466 kts | 175° |
| 2026-05-08 02:29 | -3.67902 | -79.66826 | 38244 ft | 467 kts | 175° |
| 2026-05-08 02:29 | -3.71130 | -79.66412 | 38768 ft | 468 kts | 175° |
| 2026-05-08 02:29 | -3.74411 | -79.65990 | 39047 ft | 473 kts | 175° |
| 2026-05-08 02:29 | -3.77666 | -79.65573 | 39023 ft | 483 kts | 175° |
| 2026-05-08 02:30 | -3.84453 | -79.64704 | 39030 ft | 500 kts | 175° |
| 2026-05-08 02:30 | -3.91452 | -79.63804 | 39022 ft | 513 kts | 175° |
| 2026-05-08 02:31 | -3.98608 | -79.62889 | 39028 ft | 522 kts | 175° |
| 2026-05-08 02:31 | -4.05867 | -79.61955 | 39018 ft | 529 kts | 175° |
| 2026-05-08 02:32 | -4.13185 | -79.61017 | 39014 ft | 531 kts | 175° |
| 2026-05-08 02:32 | -4.20518 | -79.60075 | 39017 ft | 530 kts | 175° |
| 2026-05-08 02:33 | -4.27817 | -79.59139 | 39016 ft | 528 kts | 175° |
| 2026-05-08 02:33 | -4.35099 | -79.58203 | 39022 ft | 526 kts | 175° |
| 2026-05-08 02:34 | -4.42349 | -79.57273 | 39019 ft | 525 kts | 175° |
| 2026-05-08 02:34 | -4.49583 | -79.56343 | 39028 ft | 523 kts | 175° |
| 2026-05-08 02:35 | -4.56797 | -79.55434 | 39037 ft | 523 kts | 176° |
| 2026-05-08 02:35 | -4.64016 | -79.54542 | 39036 ft | 522 kts | 175° |
| 2026-05-08 02:36 | -4.71222 | -79.53636 | 39046 ft | 522 kts | 176° |
| 2026-05-08 02:36 | -4.78423 | -79.52741 | 39055 ft | 522 kts | 176° |
| 2026-05-08 02:37 | -4.85639 | -79.51838 | 39060 ft | 522 kts | 176° |
| 2026-05-08 02:37 | -4.92859 | -79.50937 | 39065 ft | 523 kts | 176° |
| 2026-05-08 02:38 | -5.00033 | -79.50041 | 39066 ft | 523 kts | 176° |
| 2026-05-08 02:38 | -5.07262 | -79.49137 | 39062 ft | 523 kts | 176° |
| 2026-05-08 02:39 | -5.14481 | -79.48235 | 39057 ft | 523 kts | 176° |
| 2026-05-08 02:39 | -5.21697 | -79.47333 | 39051 ft | 522 kts | 176° |
| 2026-05-08 02:40 | -5.28908 | -79.46432 | 39050 ft | 522 kts | 176° |
| 2026-05-08 02:40 | -5.36120 | -79.45530 | 39046 ft | 522 kts | 176° |
| 2026-05-08 02:41 | -5.43332 | -79.44627 | 39043 ft | 523 kts | 176° |
| 2026-05-08 02:41 | -5.50550 | -79.43724 | 39039 ft | 522 kts | 176° |
| 2026-05-08 02:42 | -5.57752 | -79.42823 | 39033 ft | 522 kts | 176° |
| 2026-05-08 02:42 | -5.64970 | -79.41919 | 39031 ft | 523 kts | 176° |
| 2026-05-08 02:43 | -5.72200 | -79.41014 | 39038 ft | 524 kts | 176° |
| 2026-05-08 02:43 | -5.79421 | -79.40109 | 39034 ft | 523 kts | 176° |
| 2026-05-08 02:44 | -5.86646 | -79.39205 | 39026 ft | 523 kts | 176° |
| 2026-05-08 02:44 | -5.93852 | -79.38300 | 39030 ft | 522 kts | 176° |
| 2026-05-08 02:45 | -6.01068 | -79.37397 | 39026 ft | 523 kts | 176° |
| 2026-05-08 02:45 | -6.08298 | -79.36490 | 39030 ft | 524 kts | 176° |
| 2026-05-08 02:46 | -6.15545 | -79.35581 | 39027 ft | 526 kts | 176° |
| 2026-05-08 02:46 | -6.22808 | -79.34670 | 39025 ft | 526 kts | 176° |
| 2026-05-08 02:47 | -6.30077 | -79.33757 | 39019 ft | 526 kts | 176° |
| 2026-05-08 02:47 | -6.37339 | -79.32847 | 39009 ft | 526 kts | 176° |
| 2026-05-08 02:48 | -6.44600 | -79.31934 | 39009 ft | 526 kts | 176° |
| 2026-05-08 02:48 | -6.51860 | -79.31023 | 39000 ft | 526 kts | 176° |
| 2026-05-08 02:49 | -6.57900 | -79.30264 | 38995 ft | 526 kts | 176° |
| 2026-05-08 02:49 | -6.65166 | -79.29351 | 38993 ft | 526 kts | 176° |
| 2026-05-08 02:50 | -6.72439 | -79.28437 | 38990 ft | 527 kts | 176° |
| 2026-05-08 02:50 | -6.79708 | -79.27522 | 38987 ft | 526 kts | 176° |
| 2026-05-08 02:51 | -6.86980 | -79.26608 | 38989 ft | 526 kts | 176° |
| 2026-05-08 02:51 | -6.94244 | -79.25693 | 38989 ft | 526 kts | 176° |
| 2026-05-08 02:52 | -7.01513 | -79.24779 | 38991 ft | 526 kts | 176° |
| 2026-05-08 02:52 | -7.08781 | -79.23864 | 38987 ft | 526 kts | 177° |
| 2026-05-08 02:53 | -7.16046 | -79.22949 | 38986 ft | 526 kts | 177° |
| 2026-05-08 02:53 | -7.23313 | -79.22034 | 38978 ft | 526 kts | 177° |
| 2026-05-08 02:54 | -7.30576 | -79.21118 | 38980 ft | 526 kts | 177° |
| 2026-05-08 02:54 | -7.37841 | -79.20203 | 38981 ft | 526 kts | 177° |
| 2026-05-08 02:55 | -7.48737 | -79.18829 | 38969 ft | 526 kts | 177° |
| 2026-05-08 02:56 | -7.56001 | -79.17912 | 38955 ft | 526 kts | 177° |
| 2026-05-08 02:56 | -7.63258 | -79.16996 | 38962 ft | 525 kts | 177° |
| 2026-05-08 02:57 | -7.70516 | -79.16080 | 38959 ft | 526 kts | 177° |
| 2026-05-08 02:57 | -7.77779 | -79.15162 | 38960 ft | 526 kts | 177° |
| 2026-05-08 02:58 | -7.85045 | -79.14245 | 38964 ft | 527 kts | 177° |
| 2026-05-08 02:58 | -7.92320 | -79.13325 | 38968 ft | 527 kts | 177° |
| 2026-05-08 02:59 | -7.99600 | -79.12405 | 38973 ft | 527 kts | 177° |
| 2026-05-08 02:59 | -8.06870 | -79.11348 | 38948 ft | 532 kts | 172° |
| 2026-05-08 03:00 | -8.13824 | -79.08649 | 38960 ft | 541 kts | 155° |
| 2026-05-08 03:00 | -8.20310 | -79.04762 | 38974 ft | 543 kts | 152° |
| 2026-05-08 03:01 | -8.26893 | -79.01189 | 38971 ft | 540 kts | 157° |
| 2026-05-08 03:01 | -8.33492 | -78.97501 | 38969 ft | 543 kts | 153° |
| 2026-05-08 03:02 | -8.40100 | -78.93808 | 38968 ft | 542 kts | 156° |
| 2026-05-08 03:02 | -8.46730 | -78.90150 | 38964 ft | 544 kts | 154° |
| 2026-05-08 03:03 | -8.53333 | -78.86439 | 38970 ft | 543 kts | 155° |
| 2026-05-08 03:03 | -8.59967 | -78.82777 | 38961 ft | 543 kts | 155° |
| 2026-05-08 03:04 | -8.66577 | -78.79067 | 38968 ft | 543 kts | 155° |
| 2026-05-08 03:04 | -8.73197 | -78.75397 | 38972 ft | 543 kts | 155° |
| 2026-05-08 03:05 | -8.79813 | -78.71694 | 38963 ft | 544 kts | 155° |
| 2026-05-08 03:05 | -8.86446 | -78.68002 | 38968 ft | 544 kts | 155° |
| 2026-05-08 03:06 | -8.93058 | -78.64307 | 38971 ft | 543 kts | 155° |
| 2026-05-08 03:06 | -8.99682 | -78.60612 | 38971 ft | 544 kts | 155° |
| 2026-05-08 03:07 | -9.06300 | -78.56913 | 38973 ft | 544 kts | 155° |
| 2026-05-08 03:07 | -9.12923 | -78.53214 | 38979 ft | 544 kts | 155° |
| 2026-05-08 03:08 | -9.19660 | -78.49781 | 38961 ft | 541 kts | 159° |
| 2026-05-08 03:08 | -9.26473 | -78.46518 | 38969 ft | 542 kts | 158° |
| 2026-05-08 03:09 | -9.33264 | -78.43180 | 38972 ft | 542 kts | 159° |
| 2026-05-08 03:09 | -9.40076 | -78.39894 | 38971 ft | 543 kts | 159° |
| 2026-05-08 03:10 | -9.46877 | -78.36568 | 38976 ft | 543 kts | 159° |
| 2026-05-08 03:10 | -9.53687 | -78.33265 | 38980 ft | 543 kts | 159° |
| 2026-05-08 03:11 | -9.60494 | -78.29943 | 38978 ft | 542 kts | 159° |
| 2026-05-08 03:11 | -9.67292 | -78.26637 | 38980 ft | 542 kts | 159° |
| 2026-05-08 03:12 | -9.74099 | -78.23316 | 38980 ft | 543 kts | 159° |
| 2026-05-08 03:12 | -9.80907 | -78.19998 | 38978 ft | 543 kts | 159° |
| 2026-05-08 03:13 | -9.87723 | -78.16673 | 38981 ft | 543 kts | 159° |
| 2026-05-08 03:13 | -9.94535 | -78.13349 | 38982 ft | 543 kts | 159° |
| 2026-05-08 03:14 | -10.01351 | -78.10021 | 38980 ft | 544 kts | 159° |
| 2026-05-08 03:14 | -10.08153 | -78.06697 | 38990 ft | 533 kts | 159° |
| 2026-05-08 03:14 | -10.11427 | -78.05089 | 38950 ft | 514 kts | 159° |
| 2026-05-08 03:15 | -10.14604 | -78.03537 | 38897 ft | 499 kts | 159° |
| 2026-05-08 03:15 | -10.17691 | -78.02033 | 38757 ft | 487 kts | 159° |
| 2026-05-08 03:15 | -10.20743 | -78.00546 | 38137 ft | 487 kts | 159° |
| 2026-05-08 03:15 | -10.23784 | -77.99061 | 37362 ft | 484 kts | 159° |
| 2026-05-08 03:16 | -10.26821 | -77.97578 | 36469 ft | 483 kts | 159° |
| 2026-05-08 03:16 | -10.29845 | -77.96102 | 35607 ft | 481 kts | 159° |
| 2026-05-08 03:16 | -10.32850 | -77.94635 | 34700 ft | 478 kts | 159° |
| 2026-05-08 03:16 | -10.35843 | -77.93172 | 33745 ft | 476 kts | 158° |
| 2026-05-08 03:17 | -10.38823 | -77.91714 | 32608 ft | 476 kts | 158° |
| 2026-05-08 03:17 | -10.41813 | -77.90258 | 31362 ft | 478 kts | 158° |
| 2026-05-08 03:17 | -10.44811 | -77.88795 | 30592 ft | 471 kts | 157° |
| 2026-05-08 03:17 | -10.47694 | -77.87384 | 30131 ft | 453 kts | 156° |
| 2026-05-08 03:18 | -10.50496 | -77.86010 | 29492 ft | 442 kts | 156° |
| 2026-05-08 03:18 | -10.53227 | -77.84670 | 28898 ft | 431 kts | 156° |
| 2026-05-08 03:18 | -10.55874 | -77.83378 | 28355 ft | 427 kts | 156° |
| 2026-05-08 03:18 | -10.58557 | -77.82071 | 27790 ft | 428 kts | 156° |
| 2026-05-08 03:19 | -10.61242 | -77.80758 | 27226 ft | 428 kts | 155° |
| 2026-05-08 03:19 | -10.63928 | -77.79442 | 26662 ft | 428 kts | 155° |
| 2026-05-08 03:19 | -10.66643 | -77.78112 | 26098 ft | 427 kts | 155° |
| 2026-05-08 03:19 | -10.69279 | -77.76822 | 25539 ft | 425 kts | 155° |
| 2026-05-08 03:20 | -10.71937 | -77.75521 | 24970 ft | 423 kts | 155° |
| 2026-05-08 03:20 | -10.74616 | -77.74206 | 24410 ft | 421 kts | 154° |
| 2026-05-08 03:20 | -10.77244 | -77.72918 | 23857 ft | 418 kts | 154° |
| 2026-05-08 03:20 | -10.79822 | -77.71659 | 23273 ft | 415 kts | 154° |
| 2026-05-08 03:21 | -10.82408 | -77.70394 | 22723 ft | 410 kts | 154° |
| 2026-05-08 03:21 | -10.84956 | -77.69139 | 22175 ft | 405 kts | 153° |
| 2026-05-08 03:21 | -10.87483 | -77.67902 | 21644 ft | 401 kts | 153° |
| 2026-05-08 03:21 | -10.89983 | -77.66679 | 21119 ft | 397 kts | 153° |
| 2026-05-08 03:22 | -10.92492 | -77.65448 | 20592 ft | 394 kts | 153° |
| 2026-05-08 03:22 | -10.94950 | -77.64241 | 20074 ft | 391 kts | 153° |
| 2026-05-08 03:22 | -10.97368 | -77.63056 | 19569 ft | 389 kts | 153° |
| 2026-05-08 03:22 | -10.99795 | -77.61865 | 19058 ft | 386 kts | 153° |
| 2026-05-08 03:23 | -11.02206 | -77.60682 | 18554 ft | 384 kts | 153° |
| 2026-05-08 03:23 | -11.04593 | -77.59510 | 18018 ft | 381 kts | 152° |
| 2026-05-08 03:23 | -11.06972 | -77.58341 | 17509 ft | 376 kts | 153° |
| 2026-05-08 03:23 | -11.09316 | -77.57190 | 17011 ft | 372 kts | 153° |
| 2026-05-08 03:24 | -11.11631 | -77.56053 | 16520 ft | 368 kts | 153° |
| 2026-05-08 03:24 | -11.13953 | -77.54913 | 16031 ft | 364 kts | 153° |
| 2026-05-08 03:24 | -11.16192 | -77.53813 | 15560 ft | 360 kts | 153° |
| 2026-05-08 03:24 | -11.18438 | -77.52708 | 15086 ft | 357 kts | 153° |
| 2026-05-08 03:25 | -11.20668 | -77.51612 | 14615 ft | 355 kts | 153° |
| 2026-05-08 03:25 | -11.22882 | -77.50524 | 14153 ft | 352 kts | 154° |
| 2026-05-08 03:25 | -11.25082 | -77.49446 | 13670 ft | 350 kts | 154° |
| 2026-05-08 03:25 | -11.27286 | -77.48391 | 13190 ft | 348 kts | 155° |
| 2026-05-08 03:26 | -11.29481 | -77.47382 | 12732 ft | 345 kts | 155° |
| 2026-05-08 03:26 | -11.31660 | -77.46368 | 12273 ft | 343 kts | 155° |
| 2026-05-08 03:26 | -11.33815 | -77.45344 | 11824 ft | 338 kts | 154° |
| 2026-05-08 03:26 | -11.35921 | -77.44346 | 11386 ft | 330 kts | 155° |
| 2026-05-08 03:27 | -11.37987 | -77.43377 | 10952 ft | 324 kts | 155° |
| 2026-05-08 03:27 | -11.40022 | -77.42421 | 10526 ft | 320 kts | 155° |
| 2026-05-08 03:27 | -11.42033 | -77.41472 | 10108 ft | 317 kts | 155° |
| 2026-05-08 03:27 | -11.44026 | -77.40532 | 9668 ft | 315 kts | 155° |
| 2026-05-08 03:28 | -11.46003 | -77.39601 | 9248 ft | 311 kts | 155° |
| 2026-05-08 03:28 | -11.47957 | -77.38680 | 8834 ft | 308 kts | 155° |
| 2026-05-08 03:28 | -11.49887 | -77.37770 | 8436 ft | 305 kts | 155° |
| 2026-05-08 03:28 | -11.51806 | -77.36865 | 8034 ft | 302 kts | 155° |
| 2026-05-08 03:29 | -11.53704 | -77.35970 | 7635 ft | 299 kts | 155° |
| 2026-05-08 03:29 | -11.55588 | -77.35082 | 7241 ft | 297 kts | 155° |
| 2026-05-08 03:29 | -11.57459 | -77.34199 | 6851 ft | 295 kts | 155° |
| 2026-05-08 03:29 | -11.59318 | -77.33322 | 6462 ft | 294 kts | 155° |
| 2026-05-08 03:30 | -11.62956 | -77.31605 | 5675 ft | 282 kts | 155° |
| 2026-05-08 03:30 | -11.66467 | -77.29948 | 4943 ft | 274 kts | 155° |
| 2026-05-08 03:31 | -11.69880 | -77.28338 | 4257 ft | 267 kts | 155° |
| 2026-05-08 03:31 | -11.73138 | -77.26799 | 3574 ft | 263 kts | 155° |
| 2026-05-08 03:32 | -11.74785 | -77.26021 | 3231 ft | 259 kts | 155° |
| 2026-05-08 03:32 | -11.76387 | -77.25264 | 2881 ft | 248 kts | 155° |
| 2026-05-08 03:32 | -11.77916 | -77.24591 | 2559 ft | 237 kts | 158° |
| 2026-05-08 03:32 | -11.79387 | -77.23921 | 2247 ft | 227 kts | 154° |
| 2026-05-08 03:33 | -11.80773 | -77.23234 | 2096 ft | 215 kts | 154° |
| 2026-05-08 03:33 | -11.82088 | -77.22582 | 2101 ft | 207 kts | 154° |
| 2026-05-08 03:33 | -11.83381 | -77.21942 | 2104 ft | 205 kts | 153° |
| 2026-05-08 03:33 | -11.84665 | -77.21305 | 2105 ft | 206 kts | 153° |
| 2026-05-08 03:34 | -11.85954 | -77.20666 | 2105 ft | 206 kts | 154° |
| 2026-05-08 03:34 | -11.87243 | -77.20028 | 2105 ft | 206 kts | 154° |
| 2026-05-08 03:34 | -11.88534 | -77.19389 | 2107 ft | 206 kts | 154° |
| 2026-05-08 03:34 | -11.89407 | -77.18956 | 2109 ft | 207 kts | 154° |
| 2026-05-08 03:35 | -11.90697 | -77.18317 | 2107 ft | 206 kts | 154° |
| 2026-05-08 03:35 | -11.91981 | -77.17680 | 2046 ft | 205 kts | 154° |
| 2026-05-08 03:35 | -11.93259 | -77.17046 | 1774 ft | 202 kts | 154° |
| 2026-05-08 03:35 | -11.94488 | -77.16437 | 1498 ft | 184 kts | 154° |
| 2026-05-08 03:36 | -11.95559 | -77.15902 | 1268 ft | 159 kts | 154° |
| 2026-05-08 03:36 | -11.96494 | -77.15440 | 1059 ft | 141 kts | 155° |
| 2026-05-08 03:36 | -11.97344 | -77.15018 | 882 ft | 131 kts | 155° |
| 2026-05-08 03:36 | -11.98134 | -77.14630 | 720 ft | 122 kts | 155° |
| 2026-05-08 03:37 | -11.98875 | -77.14257 | 562 ft | 116 kts | 154° |
| 2026-05-08 03:37 | -11.99582 | -77.13902 | 423 ft | 111 kts | 155° |
| 2026-05-08 03:37 | -12.00273 | -77.13570 | 279 ft | 109 kts | 156° |
| 2026-05-08 03:37 | -12.00962 | -77.13232 | 89 ft | 110 kts | 155° |
| 2026-05-08 03:38 | -12.01616 | -77.12913 | 37 ft | 93 kts | 155° |
| 2026-05-08 03:38 | -12.02003 | -77.12717 | 39 ft | 44 kts | 153° |
| 2026-05-08 03:38 | -12.02256 | -77.12591 | 42 ft | 37 kts | 154° |
| 2026-05-08 03:38 | -12.02477 | -77.12482 | 45 ft | 35 kts | 154° |
| 2026-05-08 03:39 | -12.02667 | -77.12366 | 48 ft | 31 kts | 134° |
| 2026-05-08 03:39 | -12.02778 | -77.12220 | 53 ft | 10 kts | 124° |
| 2026-05-08 03:39 | -12.02818 | -77.12162 | 57 ft | 10 kts | 124° |
| 2026-05-08 03:39 | -12.02861 | -77.12120 | 63 ft | 8 kts | 156° |
| 2026-05-08 03:40 | -12.02917 | -77.12091 | 60 ft | 11 kts | 153° |
| 2026-05-08 03:40 | -12.02991 | -77.12052 | 61 ft | 13 kts | 151° |
| 2026-05-08 03:40 | -12.03083 | -77.12006 | 67 ft | 16 kts | 153° |
| 2026-05-08 03:40 | -12.03190 | -77.11954 | 63 ft | 16 kts | 157° |
| 2026-05-08 03:41 | -12.03196 | -77.11931 | 68 ft | 0 kts | 7° |
| 2026-05-08 03:41 | -12.03158 | -77.11967 | 68 ft | 18 kts | 319° |
| 2026-05-08 03:41 | -12.03025 | -77.12036 | 63 ft | 25 kts | 335° |
| 2026-05-08 03:41 | -12.02848 | -77.12124 | 63 ft | 32 kts | 333° |
| 2026-05-08 03:42 | -12.02631 | -77.12231 | 59 ft | 38 kts | 333° |
| 2026-05-08 03:42 | -12.02372 | -77.12360 | 50 ft | 42 kts | 334° |
| 2026-05-08 03:42 | -12.02213 | -77.12404 | 47 ft | 15 kts | 56° |
| 2026-05-08 03:42 | -12.02178 | -77.12329 | 51 ft | 12 kts | 66° |
| 2026-05-08 03:43 | -12.02137 | -77.12248 | 53 ft | 14 kts | 63° |
| 2026-05-08 03:43 | -12.02094 | -77.12160 | 58 ft | 14 kts | 64° |
| 2026-05-08 03:43 | -12.02051 | -77.12068 | 62 ft | 15 kts | 65° |
| 2026-05-08 03:43 | -12.02002 | -77.11962 | 58 ft | 18 kts | 63° |
| 2026-05-08 03:44 | -12.01939 | -77.11833 | 61 ft | 22 kts | 64° |
| 2026-05-08 03:44 | -12.01938 | -77.11731 | 66 ft | 13 kts | 150° |
| 2026-05-08 03:44 | -12.02031 | -77.11684 | 63 ft | 16 kts | 154° |
| 2026-05-08 03:44 | -12.02141 | -77.11631 | 63 ft | 18 kts | 154° |
| 2026-05-08 03:45 | -12.02262 | -77.11572 | 74 ft | 20 kts | 155° |
| 2026-05-08 03:45 | -12.02396 | -77.11508 | 70 ft | 22 kts | 152° |
| 2026-05-08 03:45 | -12.02539 | -77.11437 | 78 ft | 20 kts | 154° |
| 2026-05-08 03:45 | -12.02542 | -77.11332 | 88 ft | 16 kts | 63° |
| 2026-05-08 03:46 | -12.02489 | -77.11226 | 87 ft | 18 kts | 64° |
| 2026-05-08 03:46 | -12.02428 | -77.11115 | 86 ft | 13 kts | 18° |
| 2026-05-08 03:46 | -12.02328 | -77.11102 | 87 ft | 16 kts | 8° |
| 2026-05-08 03:46 | -12.02207 | -77.11105 | 91 ft | 19 kts | 354° |
| 2026-05-08 03:47 | -12.02142 | -77.11119 | 88 ft | 0 kts | 335° |
| 2026-05-08 03:47 | -12.02139 | -77.11120 | 88 ft | 2 kts | 335° |
| 2026-05-08 03:47 | -12.02110 | -77.11135 | 86 ft | 3 kts | 332° |
| 2026-05-08 03:47 | -12.02110 | -77.11149 | 86 ft | 4 kts | 256° |
| 2026-05-08 03:48 | -12.02123 | -77.11177 | 84 ft | 1 kts | 244° |
| 2026-05-08 03:48 | -12.02126 | -77.11184 | 84 ft | 0 kts | 244° |